sensor_id;sensor_type;location;lat;lon;timestamp;P1;durP1;ratioP1;P2;durP2;ratioP2
18748;SDS011;9503;53.560;10.246;2022-10-31T00:01:00;41.03;;;21.37;;
18748;SDS011;9503;53.560;10.246;2022-10-31T00:03:27;36.27;;;18.73;;
18748;SDS011;9503;53.560;10.246;2022-10-31T00:05:53;38.87;;;20.37;;
18748;SDS011;9503;53.560;10.246;2022-10-31T00:08:20;44.33;;;21.37;;
18748;SDS011;9503;53.560;10.246;2022-10-31T00:10:47;46.77;;;22.83;;
18748;SDS011;9503;53.560;10.246;2022-10-31T00:13:14;41.67;;;22.27;;
18748;SDS011;9503;53.560;10.246;2022-10-31T00:15:41;46.90;;;21.77;;
18748;SDS011;9503;53.560;10.246;2022-10-31T00:18:08;45.77;;;23.73;;
18748;SDS011;9503;53.560;10.246;2022-10-31T00:20:36;46.03;;;22.90;;
18748;SDS011;9503;53.560;10.246;2022-10-31T00:23:03;49.53;;;21.90;;
18748;SDS011;9503;53.560;10.246;2022-10-31T00:25:32;43.30;;;19.90;;
18748;SDS011;9503;53.560;10.246;2022-10-31T00:28:02;36.30;;;19.47;;
18748;SDS011;9503;53.560;10.246;2022-10-31T00:30:29;43.77;;;21.40;;
18748;SDS011;9503;53.560;10.246;2022-10-31T00:32:56;42.93;;;21.97;;
18748;SDS011;9503;53.560;10.246;2022-10-31T00:35:22;44.97;;;22.27;;
18748;SDS011;9503;53.560;10.246;2022-10-31T00:37:49;48.90;;;21.67;;
18748;SDS011;9503;53.560;10.246;2022-10-31T00:40:15;44.47;;;20.73;;
18748;SDS011;9503;53.560;10.246;2022-10-31T00:42:42;35.47;;;18.97;;
18748;SDS011;9503;53.560;10.246;2022-10-31T00:45:10;31.27;;;16.87;;
18748;SDS011;9503;53.560;10.246;2022-10-31T00:47:37;32.47;;;17.43;;
18748;SDS011;9503;53.560;10.246;2022-10-31T00:50:04;31.10;;;16.40;;
18748;SDS011;9503;53.560;10.246;2022-10-31T00:52:31;29.43;;;16.67;;
18748;SDS011;9503;53.560;10.246;2022-10-31T00:54:57;34.80;;;18.90;;
18748;SDS011;9503;53.560;10.246;2022-10-31T00:57:24;35.40;;;18.00;;
18748;SDS011;9503;53.560;10.246;2022-10-31T00:59:50;31.73;;;17.23;;
18748;SDS011;9503;53.560;10.246;2022-10-31T01:02:18;35.53;;;17.40;;
18748;SDS011;9503;53.560;10.246;2022-10-31T01:04:45;32.03;;;17.27;;
18748;SDS011;9503;53.560;10.246;2022-10-31T01:07:11;32.43;;;17.93;;
18748;SDS011;9503;53.560;10.246;2022-10-31T01:09:39;39.23;;;19.17;;
18748;SDS011;9503;53.560;10.246;2022-10-31T01:12:05;31.87;;;17.37;;
18748;SDS011;9503;53.560;10.246;2022-10-31T01:14:32;29.20;;;15.90;;
18748;SDS011;9503;53.560;10.246;2022-10-31T01:16:59;38.97;;;18.97;;
18748;SDS011;9503;53.560;10.246;2022-10-31T01:19:27;39.60;;;19.73;;
18748;SDS011;9503;53.560;10.246;2022-10-31T01:21:53;35.03;;;17.17;;
18748;SDS011;9503;53.560;10.246;2022-10-31T01:24:20;38.80;;;19.83;;
18748;SDS011;9503;53.560;10.246;2022-10-31T01:26:47;33.33;;;17.93;;
18748;SDS011;9503;53.560;10.246;2022-10-31T01:29:13;33.07;;;17.57;;
18748;SDS011;9503;53.560;10.246;2022-10-31T01:31:39;38.33;;;19.00;;
18748;SDS011;9503;53.560;10.246;2022-10-31T01:34:06;50.07;;;22.20;;
18748;SDS011;9503;53.560;10.246;2022-10-31T01:36:34;42.57;;;22.17;;
18748;SDS011;9503;53.560;10.246;2022-10-31T01:39:03;37.47;;;19.27;;
18748;SDS011;9503;53.560;10.246;2022-10-31T01:41:31;47.20;;;22.63;;
18748;SDS011;9503;53.560;10.246;2022-10-31T01:44:00;57.33;;;25.90;;
18748;SDS011;9503;53.560;10.246;2022-10-31T01:46:29;54.03;;;24.97;;
18748;SDS011;9503;53.560;10.246;2022-10-31T01:48:59;57.93;;;26.13;;
18748;SDS011;9503;53.560;10.246;2022-10-31T01:51:29;50.77;;;26.30;;
18748;SDS011;9503;53.560;10.246;2022-10-31T01:54:04;63.07;;;28.70;;
18748;SDS011;9503;53.560;10.246;2022-10-31T01:56:34;64.13;;;29.00;;
18748;SDS011;9503;53.560;10.246;2022-10-31T01:59:05;71.17;;;29.33;;
18748;SDS011;9503;53.560;10.246;2022-10-31T02:01:35;65.53;;;28.93;;
18748;SDS011;9503;53.560;10.246;2022-10-31T02:04:02;68.27;;;30.70;;
18748;SDS011;9503;53.560;10.246;2022-10-31T02:06:30;71.87;;;30.30;;
18748;SDS011;9503;53.560;10.246;2022-10-31T02:09:03;72.97;;;31.03;;
18748;SDS011;9503;53.560;10.246;2022-10-31T02:11:31;76.13;;;31.77;;
18748;SDS011;9503;53.560;10.246;2022-10-31T02:14:01;70.37;;;31.33;;
18748;SDS011;9503;53.560;10.246;2022-10-31T02:16:28;72.17;;;31.90;;
18748;SDS011;9503;53.560;10.246;2022-10-31T02:18:55;70.90;;;31.50;;
18748;SDS011;9503;53.560;10.246;2022-10-31T02:21:23;60.43;;;27.87;;
18748;SDS011;9503;53.560;10.246;2022-10-31T02:29:50;74.63;;;31.30;;
18748;SDS011;9503;53.560;10.246;2022-10-31T02:32:31;75.90;;;30.30;;
18748;SDS011;9503;53.560;10.246;2022-10-31T02:35:09;86.23;;;32.77;;
18748;SDS011;9503;53.560;10.246;2022-10-31T02:37:43;73.60;;;30.17;;
18748;SDS011;9503;53.560;10.246;2022-10-31T02:40:17;58.97;;;26.20;;
18748;SDS011;9503;53.560;10.246;2022-10-31T02:42:50;59.10;;;25.73;;
18748;SDS011;9503;53.560;10.246;2022-10-31T02:45:29;67.47;;;26.43;;
18748;SDS011;9503;53.560;10.246;2022-10-31T02:48:01;66.40;;;26.23;;
18748;SDS011;9503;53.560;10.246;2022-10-31T02:50:34;42.43;;;22.80;;
18748;SDS011;9503;53.560;10.246;2022-10-31T02:53:05;49.47;;;25.37;;
18748;SDS011;9503;53.560;10.246;2022-10-31T02:55:42;57.90;;;25.60;;
18748;SDS011;9503;53.560;10.246;2022-10-31T02:58:15;57.53;;;24.10;;
18748;SDS011;9503;53.560;10.246;2022-10-31T03:00:48;51.20;;;22.87;;
18748;SDS011;9503;53.560;10.246;2022-10-31T03:03:28;77.17;;;28.90;;
18748;SDS011;9503;53.560;10.246;2022-10-31T03:06:03;58.60;;;28.60;;
18748;SDS011;9503;53.560;10.246;2022-10-31T03:08:35;69.60;;;28.67;;
18748;SDS011;9503;53.560;10.246;2022-10-31T03:11:09;47.63;;;21.73;;
18748;SDS011;9503;53.560;10.246;2022-10-31T03:13:39;44.77;;;21.27;;
18748;SDS011;9503;53.560;10.246;2022-10-31T03:16:10;53.43;;;23.73;;
18748;SDS011;9503;53.560;10.246;2022-10-31T03:18:42;53.00;;;24.03;;
18748;SDS011;9503;53.560;10.246;2022-10-31T03:21:13;50.80;;;20.70;;
18748;SDS011;9503;53.560;10.246;2022-10-31T03:23:43;38.20;;;19.20;;
18748;SDS011;9503;53.560;10.246;2022-10-31T03:26:12;55.33;;;22.47;;
18748;SDS011;9503;53.560;10.246;2022-10-31T03:28:42;55.40;;;23.87;;
18748;SDS011;9503;53.560;10.246;2022-10-31T03:31:12;60.70;;;24.33;;
18748;SDS011;9503;53.560;10.246;2022-10-31T03:33:44;52.07;;;23.40;;
18748;SDS011;9503;53.560;10.246;2022-10-31T03:36:13;49.43;;;23.53;;
18748;SDS011;9503;53.560;10.246;2022-10-31T03:38:41;44.93;;;22.80;;
18748;SDS011;9503;53.560;10.246;2022-10-31T03:41:10;57.20;;;23.83;;
18748;SDS011;9503;53.560;10.246;2022-10-31T03:43:42;61.47;;;24.80;;
18748;SDS011;9503;53.560;10.246;2022-10-31T03:46:15;58.80;;;25.67;;
18748;SDS011;9503;53.560;10.246;2022-10-31T03:48:44;71.07;;;26.43;;
18748;SDS011;9503;53.560;10.246;2022-10-31T03:51:12;58.87;;;27.27;;
18748;SDS011;9503;53.560;10.246;2022-10-31T03:53:44;72.60;;;27.37;;
18748;SDS011;9503;53.560;10.246;2022-10-31T03:56:16;62.30;;;26.43;;
18748;SDS011;9503;53.560;10.246;2022-10-31T03:58:49;66.27;;;28.17;;
18748;SDS011;9503;53.560;10.246;2022-10-31T04:01:23;58.10;;;26.43;;
18748;SDS011;9503;53.560;10.246;2022-10-31T04:03:54;79.40;;;28.70;;
18748;SDS011;9503;53.560;10.246;2022-10-31T04:06:22;65.70;;;27.23;;
18748;SDS011;9503;53.560;10.246;2022-10-31T04:08:51;62.77;;;27.30;;
18748;SDS011;9503;53.560;10.246;2022-10-31T04:11:23;62.60;;;25.57;;
18748;SDS011;9503;53.560;10.246;2022-10-31T04:13:53;89.10;;;30.83;;
18748;SDS011;9503;53.560;10.246;2022-10-31T04:16:21;81.37;;;30.13;;
18748;SDS011;9503;53.560;10.246;2022-10-31T04:18:50;97.20;;;31.23;;
18748;SDS011;9503;53.560;10.246;2022-10-31T04:21:18;72.70;;;29.87;;
18748;SDS011;9503;53.560;10.246;2022-10-31T04:23:45;86.60;;;33.63;;
18748;SDS011;9503;53.560;10.246;2022-10-31T04:26:12;109.20;;;36.17;;
18748;SDS011;9503;53.560;10.246;2022-10-31T04:28:39;98.47;;;33.93;;
18748;SDS011;9503;53.560;10.246;2022-10-31T04:31:05;71.33;;;27.93;;
18748;SDS011;9503;53.560;10.246;2022-10-31T04:33:31;66.60;;;28.40;;
18748;SDS011;9503;53.560;10.246;2022-10-31T04:35:58;107.20;;;32.87;;
18748;SDS011;9503;53.560;10.246;2022-10-31T04:38:26;98.43;;;32.90;;
18748;SDS011;9503;53.560;10.246;2022-10-31T04:40:52;82.77;;;30.03;;
18748;SDS011;9503;53.560;10.246;2022-10-31T04:43:19;81.10;;;28.03;;
18748;SDS011;9503;53.560;10.246;2022-10-31T04:45:45;55.00;;;24.10;;
18748;SDS011;9503;53.560;10.246;2022-10-31T04:48:12;76.47;;;25.53;;
18748;SDS011;9503;53.560;10.246;2022-10-31T04:50:38;69.83;;;25.53;;
18748;SDS011;9503;53.560;10.246;2022-10-31T04:53:05;82.03;;;26.90;;
18748;SDS011;9503;53.560;10.246;2022-10-31T04:55:33;71.27;;;25.40;;
18748;SDS011;9503;53.560;10.246;2022-10-31T04:58:00;50.30;;;22.67;;
18748;SDS011;9503;53.560;10.246;2022-10-31T05:00:27;73.33;;;25.83;;
18748;SDS011;9503;53.560;10.246;2022-10-31T05:02:55;59.10;;;23.07;;
18748;SDS011;9503;53.560;10.246;2022-10-31T05:05:23;63.13;;;26.03;;
18748;SDS011;9503;53.560;10.246;2022-10-31T05:07:52;79.80;;;26.40;;
18748;SDS011;9503;53.560;10.246;2022-10-31T05:10:21;90.23;;;30.00;;
18748;SDS011;9503;53.560;10.246;2022-10-31T05:12:51;55.27;;;25.57;;
18748;SDS011;9503;53.560;10.246;2022-10-31T05:15:19;59.17;;;24.57;;
18748;SDS011;9503;53.560;10.246;2022-10-31T05:17:47;42.50;;;19.77;;
18748;SDS011;9503;53.560;10.246;2022-10-31T05:20:14;56.90;;;23.53;;
18748;SDS011;9503;53.560;10.246;2022-10-31T05:22:42;63.73;;;25.80;;
18748;SDS011;9503;53.560;10.246;2022-10-31T05:25:09;70.30;;;26.40;;
18748;SDS011;9503;53.560;10.246;2022-10-31T05:27:38;99.93;;;34.80;;
18748;SDS011;9503;53.560;10.246;2022-10-31T05:30:07;114.07;;;34.33;;
18748;SDS011;9503;53.560;10.246;2022-10-31T05:32:38;103.57;;;37.67;;
18748;SDS011;9503;53.560;10.246;2022-10-31T05:35:05;79.70;;;31.83;;
18748;SDS011;9503;53.560;10.246;2022-10-31T05:37:33;82.97;;;31.33;;
18748;SDS011;9503;53.560;10.246;2022-10-31T05:40:00;106.67;;;35.87;;
18748;SDS011;9503;53.560;10.246;2022-10-31T05:42:26;119.33;;;37.60;;
18748;SDS011;9503;53.560;10.246;2022-10-31T05:44:53;143.07;;;40.83;;
18748;SDS011;9503;53.560;10.246;2022-10-31T05:47:21;96.17;;;32.37;;
18748;SDS011;9503;53.560;10.246;2022-10-31T05:49:47;76.07;;;27.83;;
18748;SDS011;9503;53.560;10.246;2022-10-31T05:52:14;112.53;;;31.77;;
18748;SDS011;9503;53.560;10.246;2022-10-31T05:54:41;100.93;;;33.50;;
18748;SDS011;9503;53.560;10.246;2022-10-31T05:57:07;70.07;;;30.33;;
18748;SDS011;9503;53.560;10.246;2022-10-31T05:59:33;109.80;;;32.40;;
18748;SDS011;9503;53.560;10.246;2022-10-31T06:02:00;93.37;;;32.63;;
18748;SDS011;9503;53.560;10.246;2022-10-31T06:04:28;98.17;;;33.47;;
18748;SDS011;9503;53.560;10.246;2022-10-31T06:06:55;135.97;;;38.10;;
18748;SDS011;9503;53.560;10.246;2022-10-31T06:09:22;114.27;;;35.73;;
18748;SDS011;9503;53.560;10.246;2022-10-31T06:11:49;128.03;;;38.00;;
18748;SDS011;9503;53.560;10.246;2022-10-31T06:14:15;154.47;;;42.70;;
18748;SDS011;9503;53.560;10.246;2022-10-31T06:16:42;125.93;;;40.63;;
18748;SDS011;9503;53.560;10.246;2022-10-31T06:19:08;166.43;;;41.30;;
18748;SDS011;9503;53.560;10.246;2022-10-31T06:21:36;93.03;;;34.57;;
18748;SDS011;9503;53.560;10.246;2022-10-31T06:24:03;170.47;;;43.93;;
18748;SDS011;9503;53.560;10.246;2022-10-31T06:26:30;172.20;;;41.93;;
18748;SDS011;9503;53.560;10.246;2022-10-31T06:28:57;164.93;;;44.43;;
18748;SDS011;9503;53.560;10.246;2022-10-31T06:31:23;141.33;;;42.27;;
18748;SDS011;9503;53.560;10.246;2022-10-31T06:33:49;179.90;;;47.23;;
18748;SDS011;9503;53.560;10.246;2022-10-31T06:36:16;201.37;;;44.93;;
18748;SDS011;9503;53.560;10.246;2022-10-31T06:38:44;170.77;;;43.57;;
18748;SDS011;9503;53.560;10.246;2022-10-31T06:41:10;167.33;;;45.13;;
18748;SDS011;9503;53.560;10.246;2022-10-31T06:43:37;178.87;;;46.07;;
18748;SDS011;9503;53.560;10.246;2022-10-31T06:46:03;197.70;;;45.57;;
18748;SDS011;9503;53.560;10.246;2022-10-31T06:48:31;179.53;;;42.03;;
18748;SDS011;9503;53.560;10.246;2022-10-31T06:50:57;185.23;;;39.03;;
18748;SDS011;9503;53.560;10.246;2022-10-31T06:53:24;136.10;;;36.13;;
18748;SDS011;9503;53.560;10.246;2022-10-31T06:55:53;186.40;;;40.37;;
18748;SDS011;9503;53.560;10.246;2022-10-31T06:58:21;161.10;;;40.23;;
18748;SDS011;9503;53.560;10.246;2022-10-31T07:00:48;177.53;;;40.70;;
18748;SDS011;9503;53.560;10.246;2022-10-31T07:03:14;179.93;;;41.97;;
18748;SDS011;9503;53.560;10.246;2022-10-31T07:05:42;201.60;;;44.83;;
18748;SDS011;9503;53.560;10.246;2022-10-31T07:08:09;206.77;;;46.63;;
18748;SDS011;9503;53.560;10.246;2022-10-31T07:10:37;205.57;;;48.63;;
18748;SDS011;9503;53.560;10.246;2022-10-31T07:13:06;193.87;;;46.73;;
18748;SDS011;9503;53.560;10.246;2022-10-31T07:15:36;198.50;;;46.17;;
18748;SDS011;9503;53.560;10.246;2022-10-31T07:18:06;161.43;;;45.03;;
18748;SDS011;9503;53.560;10.246;2022-10-31T07:20:33;209.20;;;48.83;;
18748;SDS011;9503;53.560;10.246;2022-10-31T07:23:00;149.97;;;42.53;;
18748;SDS011;9503;53.560;10.246;2022-10-31T07:25:27;139.57;;;39.93;;
18748;SDS011;9503;53.560;10.246;2022-10-31T07:27:53;185.63;;;43.50;;
18748;SDS011;9503;53.560;10.246;2022-10-31T07:30:21;199.90;;;45.60;;
18748;SDS011;9503;53.560;10.246;2022-10-31T07:32:48;206.40;;;45.40;;
18748;SDS011;9503;53.560;10.246;2022-10-31T07:35:16;207.87;;;44.73;;
18748;SDS011;9503;53.560;10.246;2022-10-31T07:37:44;185.27;;;40.93;;
18748;SDS011;9503;53.560;10.246;2022-10-31T07:40:11;138.50;;;40.60;;
18748;SDS011;9503;53.560;10.246;2022-10-31T07:42:38;196.23;;;43.67;;
18748;SDS011;9503;53.560;10.246;2022-10-31T07:45:08;167.40;;;36.07;;
18748;SDS011;9503;53.560;10.246;2022-10-31T07:47:40;155.33;;;36.40;;
18748;SDS011;9503;53.560;10.246;2022-10-31T07:50:07;175.73;;;36.63;;
18748;SDS011;9503;53.560;10.246;2022-10-31T07:52:35;156.47;;;34.87;;
18748;SDS011;9503;53.560;10.246;2022-10-31T07:55:02;110.43;;;31.93;;
18748;SDS011;9503;53.560;10.246;2022-10-31T07:57:29;154.23;;;34.27;;
18748;SDS011;9503;53.560;10.246;2022-10-31T07:59:55;125.33;;;32.10;;
18748;SDS011;9503;53.560;10.246;2022-10-31T08:02:22;185.00;;;36.13;;
18748;SDS011;9503;53.560;10.246;2022-10-31T08:04:51;167.17;;;35.10;;
18748;SDS011;9503;53.560;10.246;2022-10-31T08:07:17;125.40;;;31.73;;
18748;SDS011;9503;53.560;10.246;2022-10-31T08:09:44;164.97;;;34.97;;
18748;SDS011;9503;53.560;10.246;2022-10-31T08:12:11;138.90;;;32.10;;
18748;SDS011;9503;53.560;10.246;2022-10-31T08:14:37;127.93;;;32.03;;
18748;SDS011;9503;53.560;10.246;2022-10-31T08:17:04;115.67;;;28.37;;
18748;SDS011;9503;53.560;10.246;2022-10-31T08:19:30;150.10;;;32.23;;
18748;SDS011;9503;53.560;10.246;2022-10-31T08:21:58;128.63;;;29.10;;
18748;SDS011;9503;53.560;10.246;2022-10-31T08:24:25;82.73;;;25.10;;
18748;SDS011;9503;53.560;10.246;2022-10-31T08:26:52;118.23;;;28.60;;
18748;SDS011;9503;53.560;10.246;2022-10-31T08:29:18;128.17;;;30.03;;
18748;SDS011;9503;53.560;10.246;2022-10-31T08:31:45;96.82;;;26.33;;
18748;SDS011;9503;53.560;10.246;2022-10-31T08:34:11;123.73;;;30.67;;
18748;SDS011;9503;53.560;10.246;2022-10-31T08:36:38;151.27;;;29.93;;
18748;SDS011;9503;53.560;10.246;2022-10-31T08:39:05;72.00;;;22.20;;
18748;SDS011;9503;53.560;10.246;2022-10-31T08:41:32;78.67;;;24.40;;
18748;SDS011;9503;53.560;10.246;2022-10-31T08:43:59;122.53;;;28.00;;
18748;SDS011;9503;53.560;10.246;2022-10-31T08:46:26;134.00;;;30.70;;
18748;SDS011;9503;53.560;10.246;2022-10-31T08:48:52;90.00;;;25.13;;
18748;SDS011;9503;53.560;10.246;2022-10-31T08:51:19;82.10;;;24.73;;
18748;SDS011;9503;53.560;10.246;2022-10-31T08:53:45;125.40;;;26.87;;
18748;SDS011;9503;53.560;10.246;2022-10-31T08:56:13;132.43;;;29.20;;
18748;SDS011;9503;53.560;10.246;2022-10-31T08:58:40;145.70;;;29.00;;
18748;SDS011;9503;53.560;10.246;2022-10-31T09:01:06;136.17;;;30.10;;
18748;SDS011;9503;53.560;10.246;2022-10-31T09:03:33;120.33;;;27.63;;
18748;SDS011;9503;53.560;10.246;2022-10-31T09:06:00;101.57;;;27.02;;
18748;SDS011;9503;53.560;10.246;2022-10-31T09:08:30;112.18;;;27.15;;
18748;SDS011;9503;53.560;10.246;2022-10-31T09:10:59;119.38;;;28.85;;
18748;SDS011;9503;53.560;10.246;2022-10-31T09:13:26;84.75;;;24.77;;
18748;SDS011;9503;53.560;10.246;2022-10-31T09:15:53;79.57;;;25.07;;
18748;SDS011;9503;53.560;10.246;2022-10-31T09:18:21;74.70;;;24.90;;
18748;SDS011;9503;53.560;10.246;2022-10-31T09:20:49;91.15;;;28.05;;
18748;SDS011;9503;53.560;10.246;2022-10-31T09:23:17;82.50;;;27.70;;
18748;SDS011;9503;53.560;10.246;2022-10-31T09:25:45;76.18;;;25.90;;
18748;SDS011;9503;53.560;10.246;2022-10-31T09:28:13;78.50;;;28.00;;
18748;SDS011;9503;53.560;10.246;2022-10-31T09:30:45;65.55;;;25.33;;
18748;SDS011;9503;53.560;10.246;2022-10-31T09:33:13;70.53;;;25.08;;
18748;SDS011;9503;53.560;10.246;2022-10-31T09:35:40;66.10;;;23.60;;
18748;SDS011;9503;53.560;10.246;2022-10-31T09:38:08;65.93;;;24.35;;
18748;SDS011;9503;53.560;10.246;2022-10-31T09:40:37;53.65;;;23.10;;
18748;SDS011;9503;53.560;10.246;2022-10-31T09:43:08;58.25;;;23.17;;
18748;SDS011;9503;53.560;10.246;2022-10-31T09:45:46;44.38;;;20.10;;
18748;SDS011;9503;53.560;10.246;2022-10-31T09:51:08;40.08;;;18.10;;
18748;SDS011;9503;53.560;10.246;2022-10-31T09:53:39;39.90;;;17.70;;
18748;SDS011;9503;53.560;10.246;2022-10-31T09:56:08;42.15;;;17.80;;
18748;SDS011;9503;53.560;10.246;2022-10-31T09:58:40;35.42;;;16.75;;
18748;SDS011;9503;53.560;10.246;2022-10-31T10:01:14;35.05;;;16.95;;
18748;SDS011;9503;53.560;10.246;2022-10-31T10:03:49;34.22;;;17.67;;
18748;SDS011;9503;53.560;10.246;2022-10-31T10:06:22;36.58;;;18.33;;
18748;SDS011;9503;53.560;10.246;2022-10-31T10:08:50;32.92;;;16.30;;
18748;SDS011;9503;53.560;10.246;2022-10-31T10:11:21;35.00;;;16.40;;
18748;SDS011;9503;53.560;10.246;2022-10-31T10:14:00;33.03;;;17.15;;
18748;SDS011;9503;53.560;10.246;2022-10-31T10:16:39;37.95;;;18.15;;
18748;SDS011;9503;53.560;10.246;2022-10-31T10:19:18;33.60;;;17.63;;
18748;SDS011;9503;53.560;10.246;2022-10-31T10:21:56;35.45;;;16.50;;
18748;SDS011;9503;53.560;10.246;2022-10-31T10:24:33;34.25;;;17.73;;
18748;SDS011;9503;53.560;10.246;2022-10-31T10:27:20;35.85;;;16.42;;
18748;SDS011;9503;53.560;10.246;2022-10-31T10:29:56;32.55;;;16.23;;
18748;SDS011;9503;53.560;10.246;2022-10-31T10:32:29;31.73;;;16.23;;
18748;SDS011;9503;53.560;10.246;2022-10-31T10:35:07;35.10;;;15.05;;
18748;SDS011;9503;53.560;10.246;2022-10-31T10:37:43;39.10;;;17.15;;
18748;SDS011;9503;53.560;10.246;2022-10-31T10:40:13;30.05;;;14.88;;
18748;SDS011;9503;53.560;10.246;2022-10-31T10:42:44;30.52;;;14.40;;
18748;SDS011;9503;53.560;10.246;2022-10-31T10:45:34;25.27;;;13.52;;
18748;SDS011;9503;53.560;10.246;2022-10-31T10:48:24;25.42;;;13.95;;
18748;SDS011;9503;53.560;10.246;2022-10-31T10:50:57;25.60;;;13.93;;
18748;SDS011;9503;53.560;10.246;2022-10-31T10:53:28;21.83;;;12.00;;
18748;SDS011;9503;53.560;10.246;2022-10-31T10:56:15;23.40;;;12.32;;
18748;SDS011;9503;53.560;10.246;2022-10-31T10:58:46;25.83;;;12.90;;
18748;SDS011;9503;53.560;10.246;2022-10-31T11:01:14;25.15;;;13.10;;
18748;SDS011;9503;53.560;10.246;2022-10-31T11:03:42;25.10;;;12.45;;
18748;SDS011;9503;53.560;10.246;2022-10-31T11:06:16;25.33;;;12.88;;
18748;SDS011;9503;53.560;10.246;2022-10-31T11:08:47;28.30;;;13.57;;
18748;SDS011;9503;53.560;10.246;2022-10-31T11:11:20;21.17;;;11.15;;
18748;SDS011;9503;53.560;10.246;2022-10-31T11:13:52;22.77;;;12.13;;
18748;SDS011;9503;53.560;10.246;2022-10-31T11:16:28;23.50;;;12.60;;
18748;SDS011;9503;53.560;10.246;2022-10-31T11:19:06;20.85;;;11.73;;
18748;SDS011;9503;53.560;10.246;2022-10-31T11:21:35;23.40;;;11.65;;
18748;SDS011;9503;53.560;10.246;2022-10-31T11:24:03;22.35;;;13.13;;
18748;SDS011;9503;53.560;10.246;2022-10-31T11:26:30;23.10;;;13.00;;
18748;SDS011;9503;53.560;10.246;2022-10-31T11:29:00;21.80;;;12.27;;
18748;SDS011;9503;53.560;10.246;2022-10-31T11:31:28;23.33;;;13.13;;
18748;SDS011;9503;53.560;10.246;2022-10-31T11:33:58;29.75;;;14.00;;
18748;SDS011;9503;53.560;10.246;2022-10-31T11:36:28;22.65;;;13.82;;
18748;SDS011;9503;53.560;10.246;2022-10-31T11:38:57;27.15;;;13.00;;
18748;SDS011;9503;53.560;10.246;2022-10-31T11:41:26;19.85;;;12.75;;
18748;SDS011;9503;53.560;10.246;2022-10-31T11:43:55;27.33;;;13.77;;
18748;SDS011;9503;53.560;10.246;2022-10-31T11:46:27;25.92;;;14.32;;
18748;SDS011;9503;53.560;10.246;2022-10-31T11:48:59;23.67;;;13.25;;
18748;SDS011;9503;53.560;10.246;2022-10-31T11:51:27;27.25;;;11.98;;
18748;SDS011;9503;53.560;10.246;2022-10-31T11:53:57;20.65;;;11.30;;
18748;SDS011;9503;53.560;10.246;2022-10-31T11:56:24;21.73;;;11.75;;
18748;SDS011;9503;53.560;10.246;2022-10-31T11:58:55;21.85;;;12.05;;
18748;SDS011;9503;53.560;10.246;2022-10-31T12:01:23;19.88;;;11.00;;
18748;SDS011;9503;53.560;10.246;2022-10-31T12:03:53;22.05;;;11.93;;
18748;SDS011;9503;53.560;10.246;2022-10-31T12:06:27;20.73;;;11.27;;
18748;SDS011;9503;53.560;10.246;2022-10-31T12:08:59;22.63;;;12.18;;
18748;SDS011;9503;53.560;10.246;2022-10-31T12:11:35;26.85;;;12.32;;
18748;SDS011;9503;53.560;10.246;2022-10-31T12:14:12;20.75;;;11.07;;
18748;SDS011;9503;53.560;10.246;2022-10-31T12:16:49;21.17;;;11.45;;
18748;SDS011;9503;53.560;10.246;2022-10-31T12:19:26;21.15;;;12.40;;
18748;SDS011;9503;53.560;10.246;2022-10-31T12:22:07;25.17;;;13.27;;
18748;SDS011;9503;53.560;10.246;2022-10-31T12:24:50;23.27;;;12.98;;
18748;SDS011;9503;53.560;10.246;2022-10-31T12:27:34;26.67;;;13.00;;
18748;SDS011;9503;53.560;10.246;2022-10-31T12:30:12;23.80;;;14.15;;
18748;SDS011;9503;53.560;10.246;2022-10-31T12:32:51;26.27;;;14.80;;
18748;SDS011;9503;53.560;10.246;2022-10-31T12:35:33;33.70;;;15.80;;
18748;SDS011;9503;53.560;10.246;2022-10-31T12:38:15;25.48;;;13.90;;
18748;SDS011;9503;53.560;10.246;2022-10-31T12:40:59;25.63;;;14.85;;
18748;SDS011;9503;53.560;10.246;2022-10-31T12:43:37;31.23;;;15.70;;
18748;SDS011;9503;53.560;10.246;2022-10-31T12:46:13;23.48;;;11.95;;
18748;SDS011;9503;53.560;10.246;2022-10-31T12:48:50;19.35;;;12.52;;
18748;SDS011;9503;53.560;10.246;2022-10-31T12:51:29;22.35;;;12.15;;
18748;SDS011;9503;53.560;10.246;2022-10-31T12:54:15;23.75;;;12.13;;
18748;SDS011;9503;53.560;10.246;2022-10-31T12:56:53;27.85;;;14.23;;
18748;SDS011;9503;53.560;10.246;2022-10-31T12:59:28;41.72;;;14.90;;
18748;SDS011;9503;53.560;10.246;2022-10-31T13:01:59;27.40;;;13.02;;
18748;SDS011;9503;53.560;10.246;2022-10-31T13:04:33;30.52;;;15.57;;
18748;SDS011;9503;53.560;10.246;2022-10-31T13:07:05;29.85;;;16.70;;
18748;SDS011;9503;53.560;10.246;2022-10-31T13:09:41;34.15;;;16.58;;
18748;SDS011;9503;53.560;10.246;2022-10-31T13:12:15;23.67;;;14.63;;
18748;SDS011;9503;53.560;10.246;2022-10-31T13:14:46;32.78;;;16.98;;
18748;SDS011;9503;53.560;10.246;2022-10-31T13:17:18;31.65;;;15.98;;
18748;SDS011;9503;53.560;10.246;2022-10-31T13:19:50;31.13;;;15.73;;
18748;SDS011;9503;53.560;10.246;2022-10-31T13:22:22;27.17;;;14.98;;
18748;SDS011;9503;53.560;10.246;2022-10-31T13:24:54;28.10;;;14.82;;
18748;SDS011;9503;53.560;10.246;2022-10-31T13:27:25;33.50;;;15.13;;
18748;SDS011;9503;53.560;10.246;2022-10-31T13:29:58;32.20;;;15.80;;
18748;SDS011;9503;53.560;10.246;2022-10-31T13:32:28;23.38;;;15.07;;
18748;SDS011;9503;53.560;10.246;2022-10-31T13:35:04;32.00;;;16.08;;
18748;SDS011;9503;53.560;10.246;2022-10-31T13:37:41;29.83;;;14.65;;
18748;SDS011;9503;53.560;10.246;2022-10-31T13:40:15;26.30;;;14.90;;
18748;SDS011;9503;53.560;10.246;2022-10-31T13:42:51;24.85;;;14.82;;
18748;SDS011;9503;53.560;10.246;2022-10-31T13:45:23;26.45;;;14.02;;
18748;SDS011;9503;53.560;10.246;2022-10-31T13:47:55;27.83;;;14.77;;
18748;SDS011;9503;53.560;10.246;2022-10-31T13:50:23;27.90;;;15.18;;
18748;SDS011;9503;53.560;10.246;2022-10-31T13:52:51;23.88;;;14.20;;
18748;SDS011;9503;53.560;10.246;2022-10-31T13:55:37;24.00;;;14.57;;
18748;SDS011;9503;53.560;10.246;2022-10-31T13:58:18;26.50;;;14.63;;
18748;SDS011;9503;53.560;10.246;2022-10-31T14:03:44;26.83;;;14.50;;
18748;SDS011;9503;53.560;10.246;2022-10-31T14:06:12;21.42;;;12.95;;
18748;SDS011;9503;53.560;10.246;2022-10-31T14:08:43;24.77;;;14.50;;
18748;SDS011;9503;53.560;10.246;2022-10-31T14:11:25;30.60;;;15.65;;
18748;SDS011;9503;53.560;10.246;2022-10-31T14:13:53;23.73;;;14.38;;
18748;SDS011;9503;53.560;10.246;2022-10-31T14:16:23;28.58;;;14.40;;
18748;SDS011;9503;53.560;10.246;2022-10-31T14:18:58;23.08;;;13.43;;
18748;SDS011;9503;53.560;10.246;2022-10-31T14:21:28;23.00;;;13.27;;
18748;SDS011;9503;53.560;10.246;2022-10-31T14:23:56;23.83;;;13.25;;
18748;SDS011;9503;53.560;10.246;2022-10-31T14:26:35;25.58;;;13.48;;
18748;SDS011;9503;53.560;10.246;2022-10-31T14:29:04;23.58;;;12.70;;
18748;SDS011;9503;53.560;10.246;2022-10-31T14:31:57;23.38;;;13.88;;
18748;SDS011;9503;53.560;10.246;2022-10-31T14:34:27;23.27;;;14.57;;
18748;SDS011;9503;53.560;10.246;2022-10-31T14:37:25;24.50;;;13.93;;
18748;SDS011;9503;53.560;10.246;2022-10-31T14:40:24;25.80;;;14.30;;
18748;SDS011;9503;53.560;10.246;2022-10-31T14:43:04;24.25;;;13.77;;
18748;SDS011;9503;53.560;10.246;2022-10-31T14:45:44;25.00;;;13.52;;
18748;SDS011;9503;53.560;10.246;2022-10-31T14:48:31;28.58;;;14.95;;